Time;durP1;ratioP1;P1;durP2;ratioP2;P2;SDS_P1;SDS_P2;PMS_P1;PMS_P2;Temp;Humidity;BMP_temperature;BMP_pressure;BME280_temperature;BME280_humidity;BME280_pressure;Samples;Min_cycle;Max_cycle;Signal;HPM_P1;HPM_P2
2023/03/12 00:00:29;;;;;;;5.57;2.05;;;-1.30;99.90;;;-2.24;100.00;96862.91;5002562;28;20852;-39
2023/03/12 00:02:55;;;;;;;4.57;1.58;;;-1.30;99.90;;;-2.27;100.00;96859.44;5007519;28;20051;-39
2023/03/12 00:05:21;;;;;;;4.95;2.05;;;-1.30;99.90;;;-2.25;100.00;96853.41;5007512;28;20734;-39
2023/03/12 00:07:47;;;;;;;5.15;2.10;;;-1.30;99.90;;;-2.22;100.00;96860.34;5008730;28;20037;-39
2023/03/12 00:10:13;;;;;;;4.55;1.83;;;-1.30;99.90;;;-2.22;100.00;96860.34;5010084;28;20113;-39
2023/03/12 00:12:40;;;;;;;3.90;1.98;;;-1.30;99.90;;;-2.21;100.00;96862.03;5006294;28;20123;-39
2023/03/12 00:15:06;;;;;;;4.00;1.98;;;-1.30;99.90;;;-2.21;100.00;96862.91;5011202;28;20033;-39
2023/03/12 00:17:32;;;;;;;6.30;2.03;;;-1.30;99.90;;;-2.22;100.00;96868.09;5007511;28;20060;-39
2023/03/12 00:19:58;;;;;;;6.18;1.95;;;-1.30;99.90;;;-2.20;100.00;96861.19;5008423;28;20045;-39
2023/03/12 00:22:24;;;;;;;5.18;2.15;;;-1.20;99.90;;;-2.19;100.00;96873.25;5012187;28;20033;-39
2023/03/12 00:24:55;;;;;;;4.57;1.80;;;-1.30;99.90;;;-2.22;100.00;96865.50;5007791;28;20029;-39
2023/03/12 00:27:22;;;;;;;4.00;1.92;;;-1.30;99.90;;;-2.27;100.00;96865.47;5011177;28;20060;-39
2023/03/12 00:29:48;;;;;;;7.22;2.38;;;-1.30;99.90;;;-2.28;100.00;96868.03;5008972;28;20107;-39
2023/03/12 00:32:14;;;;;;;3.70;2.10;;;-1.40;99.90;;;-2.33;100.00;96857.69;5008772;28;20036;-39
2023/03/12 00:34:40;;;;;;;4.85;2.58;;;-1.40;99.90;;;-2.35;100.00;96854.22;5007211;28;20030;-39
2023/03/12 00:37:07;;;;;;;9.38;2.85;;;-1.40;99.90;;;-2.36;100.00;96857.69;5013522;28;20509;-39
2023/03/12 00:39:33;;;;;;;5.00;2.45;;;-1.40;99.90;;;-2.39;100.00;96862.81;5011375;28;20037;-39
2023/03/12 00:42:00;;;;;;;5.45;2.42;;;-1.50;99.90;;;-2.39;100.00;96857.66;5008429;28;22119;-39
2023/03/12 00:44:26;;;;;;;6.65;2.58;;;-1.40;99.90;;;-2.40;100.00;96850.78;5009198;28;20068;-39
2023/03/12 00:46:51;;;;;;;11.73;3.00;;;-1.50;99.90;;;-2.42;100.00;96855.94;5005246;28;20033;-39
2023/03/12 00:49:17;;;;;;;5.25;2.60;;;-1.50;99.90;;;-2.42;100.00;96844.72;5007983;28;20119;-39
2023/03/12 00:51:43;;;;;;;9.25;3.42;;;-1.50;99.90;;;-2.42;100.00;96849.88;5009963;28;20044;-39
2023/03/12 00:54:09;;;;;;;8.57;3.40;;;-1.50;99.90;;;-2.45;100.00;96836.97;5008459;28;20033;-39
2023/03/12 00:56:34;;;;;;;6.38;2.80;;;-1.40;99.90;;;-2.44;100.00;96839.56;5015380;28;20826;-39
2023/03/12 00:59:00;;;;;;;8.48;3.15;;;-1.40;99.90;;;-2.45;100.00;96839.56;5012031;28;20029;-39
2023/03/12 01:01:26;;;;;;;6.80;3.30;;;-1.40;99.90;;;-2.38;100.00;96854.22;5008738;28;20099;-39
2023/03/12 01:03:53;;;;;;;6.68;3.15;;;-1.30;99.90;;;-2.32;100.00;96837.03;5010774;28;20056;-39
2023/03/12 01:06:19;;;;;;;5.85;3.13;;;-1.30;99.90;;;-2.32;100.00;96818.94;5015295;28;20444;-38
2023/03/12 01:08:45;;;;;;;8.55;3.65;;;-1.20;99.90;;;-2.16;100.00;96837.94;5002070;28;20037;-39
2023/03/12 01:11:16;;;;;;;5.22;3.10;;;-1.10;99.90;;;-2.11;100.00;96841.44;5006187;28;20060;-39
2023/03/12 01:13:42;;;;;;;8.05;3.42;;;-1.10;99.90;;;-2.12;100.00;96847.47;5004383;28;20033;-39
2023/03/12 01:16:08;;;;;;;4.60;2.88;;;-1.10;99.90;;;-2.09;100.00;96844.03;5002255;28;20048;-39
2023/03/12 01:18:34;;;;;;;7.50;3.70;;;-1.10;99.90;;;-2.09;100.00;96843.16;5004668;28;20044;-39
2023/03/12 01:21:00;;;;;;;6.57;3.50;;;-1.10;99.90;;;-2.12;100.00;96839.72;5011285;28;20033;-39
2023/03/12 01:23:26;;;;;;;8.13;3.30;;;-1.10;99.90;;;-2.11;100.00;96844.00;5011204;28;20033;-39
2023/03/12 01:25:54;;;;;;;8.45;3.58;;;-1.10;99.90;;;-2.06;100.00;96843.16;5009629;28;20532;-39
2023/03/12 01:28:21;;;;;;;5.35;3.30;;;-1.00;99.90;;;-1.98;100.00;96846.63;5010705;28;20032;-39
2023/03/12 01:30:47;;;;;;;7.15;3.53;;;-1.00;99.90;;;-1.94;100.00;96836.34;5007761;28;20029;-39
2023/03/12 01:33:13;;;;;;;10.45;3.63;;;-0.90;99.90;;;-1.82;100.00;96839.81;5013990;28;20044;-39
2023/03/12 01:35:40;;;;;;;6.20;3.53;;;-0.80;99.90;;;-1.76;100.00;96844.97;5008040;28;20552;-39
2023/03/12 01:38:14;;;;;;;8.63;3.10;;;-0.80;99.90;;;-1.69;100.00;96845.88;5013086;28;20052;-39
2023/03/12 01:40:42;;;;;;;9.10;3.33;;;-0.70;99.90;;;-1.62;100.00;96842.44;5010398;28;20112;-39
2023/03/12 01:46:44;;;;;;;8.25;3.28;;;-0.60;99.90;;;-1.46;100.00;96843.31;6000979;23;20045;-57
2023/03/12 01:49:31;;;;;;;6.13;3.17;;;-0.50;99.90;;;-1.38;100.00;96849.38;6004115;23;20032;-56
2023/03/12 01:52:10;;;;;;;8.15;3.33;;;-0.40;99.90;;;-1.31;100.00;96845.06;6003212;23;20824;-56
2023/03/12 01:55:10;;;;;;;7.75;3.15;;;-0.30;99.90;;;-1.26;100.00;96843.34;5980004;23;20013;-57
2023/03/12 01:57:53;;;;;;;5.53;3.00;;;-0.30;99.90;;;-1.23;100.00;96843.34;5966397;23;20022;-61
2023/03/12 02:00:24;;;;;;;7.90;2.97;;;-0.20;99.90;;;-1.18;100.00;96847.66;5982601;23;20476;-56
2023/03/12 02:02:51;;;;;;;7.47;3.47;;;-0.20;99.90;;;-1.13;100.00;96849.38;5994706;23;20025;-59
2023/03/12 02:05:42;;;;;;;7.85;3.60;;;-0.20;99.90;;;-1.11;100.00;96848.53;5971481;23;21575;-58
2023/03/12 02:08:09;;;;;;;8.13;3.45;;;-0.10;99.90;;;-1.12;100.00;96841.63;6000846;23;20372;-58
2023/03/12 02:10:35;;;;;;;4.35;2.83;;;-0.10;99.90;;;-1.11;100.00;96840.78;6006227;23;20116;-56
2023/03/12 02:13:01;;;;;;;7.88;3.70;;;-0.10;99.90;;;-1.07;100.00;96844.22;5973192;23;20036;-58
2023/03/12 02:15:27;;;;;;;9.30;3.38;;;-0.10;99.90;;;-1.04;100.00;96845.09;5997549;23;20615;-57
2023/03/12 02:17:53;;;;;;;7.90;3.30;;;-0.10;99.90;;;-1.04;100.00;96842.50;5974449;23;20392;-57
2023/03/12 02:20:38;;;;;;;7.05;3.35;;;-0.10;99.90;;;-1.07;100.00;96837.31;6002931;23;20489;-57
2023/03/12 02:23:12;;;;;;;6.43;3.33;;;-0.10;99.90;;;-1.19;100.00;96827.81;5999798;23;20022;-57
2023/03/12 02:25:41;;;;;;;8.38;3.60;;;-0.20;99.90;;;-1.35;100.00;96815.75;6001298;23;20029;-57
2023/03/12 02:28:12;;;;;;;8.55;3.53;;;-0.20;99.90;;;-1.24;100.00;96836.44;6014112;23;20017;-57
2023/03/12 02:30:41;;;;;;;9.40;3.30;;;-0.30;99.90;;;-1.29;100.00;96838.16;6007399;23;20017;-57
2023/03/12 02:33:09;;;;;;;10.15;3.67;;;-0.30;99.90;;;-1.33;100.00;96832.13;6004320;23;20021;-59
2023/03/12 02:35:35;;;;;;;6.78;3.40;;;-0.40;99.90;;;-1.35;100.00;96839.03;6001747;23;20366;-59
2023/03/12 02:38:02;;;;;;;8.77;3.75;;;-0.40;99.90;;;-1.38;100.00;96833.88;6009814;23;20368;-59
2023/03/12 02:40:33;;;;;;;8.68;3.70;;;-0.40;99.90;;;-1.42;100.00;96837.28;6006014;23;20041;-57
2023/03/12 02:42:59;;;;;;;8.52;4.13;;;-0.50;99.90;;;-1.45;100.00;96837.31;5973439;23;20021;-57
2023/03/12 02:45:25;;;;;;;8.50;3.75;;;-0.50;99.90;;;-1.65;100.00;96820.03;5976879;23;20405;-59
2023/03/12 02:47:52;;;;;;;7.28;3.67;;;-0.50;99.90;;;-1.56;100.00;96832.97;5993714;23;20029;-59
2023/03/12 02:50:17;;;;;;;8.48;3.67;;;-0.60;99.90;;;-1.61;100.00;96837.28;6004554;23;20049;-59
2023/03/12 02:52:43;;;;;;;13.05;3.80;;;-0.60;99.90;;;-1.65;100.00;96839.81;6001843;23;20041;-60
2023/03/12 02:55:09;;;;;;;9.13;3.95;;;-0.70;99.90;;;-1.69;100.00;96833.78;6000510;23;20036;-59
2023/03/12 02:57:37;;;;;;;8.60;4.18;;;-0.70;99.90;;;-1.73;100.00;96835.50;6003035;23;20113;-59
2023/03/12 03:00:11;;;;;;;8.25;3.75;;;-0.70;99.90;;;-1.75;100.00;96838.97;5976857;23;20029;-59
2023/03/12 03:02:38;;;;;;;11.00;4.30;;;-0.70;99.90;;;-1.80;100.00;96825.16;6001938;23;20527;-59
2023/03/12 03:05:04;;;;;;;8.00;4.07;;;-0.80;99.90;;;-1.86;100.00;96835.50;5997025;23;20076;-59
2023/03/12 03:07:30;;;;;;;11.65;3.70;;;-0.90;99.90;;;-1.90;100.00;96834.63;6000364;23;20029;-59
2023/03/12 03:09:55;;;;;;;9.65;4.10;;;-0.90;99.90;;;-1.90;100.00;96836.31;5998284;23;20035;-59
2023/03/12 03:12:21;;;;;;;10.88;4.03;;;-0.90;99.90;;;-1.94;100.00;96830.28;5982393;23;20483;-59
2023/03/12 03:14:47;;;;;;;6.97;4.07;;;-0.90;99.90;;;-1.95;100.00;96832.00;5975319;23;20036;-59
2023/03/12 03:17:13;;;;;;;9.07;3.95;;;-0.90;99.90;;;-1.90;100.00;96824.28;5998543;23;20025;-59
2023/03/12 03:19:39;;;;;;;7.07;3.63;;;-0.90;99.90;;;-1.87;100.00;96824.25;5997506;23;20025;-59
2023/03/12 03:22:05;;;;;;;7.70;3.75;;;-0.80;99.90;;;-1.77;100.00;96809.66;5996757;23;20041;-59
2023/03/12 03:24:31;;;;;;;9.48;3.85;;;-0.80;99.90;;;-1.66;100.00;96804.50;5998707;23;20067;-59
2023/03/12 03:26:56;;;;;;;10.02;4.30;;;-0.70;99.90;;;-1.55;100.00;96802.78;6000344;23;20353;-59
2023/03/12 03:29:22;;;;;;;10.63;4.60;;;-0.60;99.90;;;-1.46;100.00;96795.03;6006903;23;20041;-59
2023/03/12 03:31:48;;;;;;;12.52;3.92;;;-0.50;99.90;;;-1.38;100.00;96800.25;5974760;23;20020;-59
2023/03/12 03:34:14;;;;;;;9.75;4.15;;;-0.40;99.90;;;-1.29;100.00;96804.53;6001364;23;20484;-59
2023/03/12 03:36:39;;;;;;;11.00;4.20;;;-0.30;99.90;;;-1.19;100.00;96803.66;6004471;23;20441;-59
2023/03/12 03:39:05;;;;;;;11.00;4.10;;;-0.20;99.90;;;-1.10;100.00;96806.25;6002177;23;20029;-59
2023/03/12 03:41:31;;;;;;;9.73;4.40;;;-0.10;99.90;;;-1.01;100.00;96813.16;6005426;23;20048;-60
2023/03/12 03:43:58;;;;;;;6.40;3.35;;;0.00;99.90;;;-0.89;100.00;96805.38;5999469;23;20029;-59
2023/03/12 03:46:24;;;;;;;8.63;3.97;;;0.10;99.90;;;-0.79;100.00;96811.38;5999638;23;20401;-59
2023/03/12 03:48:50;;;;;;;9.82;3.80;;;0.20;99.90;;;-0.72;100.00;96809.66;6001059;23;20020;-59
2023/03/12 03:51:16;;;;;;;8.20;4.13;;;0.20;99.90;;;-0.62;100.00;96812.22;6006926;23;20044;-59
2023/03/12 03:53:42;;;;;;;11.30;3.90;;;0.30;99.90;;;-0.53;100.00;96811.34;6002419;23;20017;-59
2023/03/12 03:56:11;;;;;;;7.20;4.03;;;0.40;99.90;;;-0.47;100.00;96813.06;5999650;23;20044;-59
2023/03/12 03:58:37;;;;;;;6.95;3.08;;;0.50;99.90;;;-0.38;100.00;96810.44;6005387;23;20020;-59
2023/03/12 04:01:03;;;;;;;8.10;3.53;;;0.60;99.90;;;-0.34;100.00;96816.47;6007191;23;20021;-59
2023/03/12 04:03:29;;;;;;;6.55;3.85;;;0.60;99.90;;;-0.24;100.00;96806.06;6005867;23;20033;-59
2023/03/12 04:05:57;;;;;;;7.15;3.40;;;0.70;99.90;;;-0.32;100.00;96775.84;6000365;23;20474;-59
2023/03/12 04:08:23;;;;;;;5.82;3.47;;;0.80;99.90;;;-0.14;100.00;96796.53;6008714;23;20406;-59
2023/03/12 04:10:49;;;;;;;7.47;3.50;;;0.80;99.90;;;-0.11;100.00;96793.06;6004717;23;20043;-59
2023/03/12 04:13:15;;;;;;;9.45;4.10;;;0.80;99.90;;;-0.13;100.00;96787.88;5982355;23;20100;-59
2023/03/12 04:15:52;;;;;;;9.25;3.72;;;0.80;99.90;;;-0.10;100.00;96794.78;5998448;23;20105;-59
2023/03/12 04:18:19;;;;;;;6.53;3.83;;;0.80;99.90;;;-0.10;100.00;96784.41;6007534;23;20029;-59
2023/03/12 04:20:45;;;;;;;7.70;3.45;;;0.90;99.90;;;-0.04;100.00;96794.75;6001885;23;20017;-59
2023/03/12 04:23:11;;;;;;;6.53;3.60;;;0.90;99.90;;;-0.03;100.00;96797.34;5999959;23;20511;-59
2023/03/12 04:25:37;;;;;;;8.13;3.88;;;0.90;99.90;;;0.00;100.00;96799.06;6001428;23;20039;-60
2023/03/12 04:28:04;;;;;;;7.22;3.58;;;0.90;99.90;;;0.02;100.00;96794.72;6000929;23;20021;-59
2023/03/12 04:30:29;;;;;;;7.43;3.35;;;1.00;99.90;;;0.07;100.00;96795.56;6001712;23;20075;-59
2023/03/12 04:32:55;;;;;;;6.18;3.72;;;1.00;99.90;;;0.11;100.00;96797.28;6002030;23;20029;-59
2023/03/12 04:35:21;;;;;;;6.85;3.83;;;1.00;99.90;;;0.04;100.00;96771.41;5973638;23;20128;-59
2023/03/12 04:37:46;;;;;;;6.20;3.50;;;1.10;99.90;;;0.19;100.00;96807.59;5997216;23;20032;-59
2023/03/12 04:40:14;;;;;;;7.85;3.95;;;1.10;99.90;;;0.21;100.00;96812.78;6003376;23;20545;-59
2023/03/12 04:42:40;;;;;;;7.30;3.42;;;1.10;99.90;;;0.27;100.00;96800.66;5998122;23;20473;-58
2023/03/12 04:45:07;;;;;;;6.70;3.70;;;1.20;99.90;;;0.31;100.00;96807.53;5997529;23;20393;-57
2023/03/12 04:47:33;;;;;;;7.88;3.20;;;1.20;99.90;;;0.35;100.00;96796.25;6003883;23;20399;-57
2023/03/12 04:49:59;;;;;;;8.57;3.50;;;1.30;99.90;;;0.40;100.00;96805.75;6003906;23;20014;-57
2023/03/12 04:52:25;;;;;;;6.05;3.50;;;1.30;99.90;;;0.44;100.00;96807.47;6004972;23;20107;-57
2023/03/12 04:54:52;;;;;;;9.07;3.83;;;1.30;99.90;;;0.47;100.00;96803.09;6001672;23;20278;-57
2023/03/12 04:57:18;;;;;;;7.65;3.33;;;1.40;99.90;;;0.47;100.00;96797.91;6004188;23;20021;-59
2023/03/12 04:59:44;;;;;;;5.25;2.97;;;1.40;99.90;;;0.49;100.00;96792.72;5994916;23;20021;-59
2023/03/12 05:02:10;;;;;;;5.80;2.80;;;1.40;99.90;;;0.51;100.00;96794.44;6001129;23;20031;-59
2023/03/12 05:04:36;;;;;;;10.07;3.42;;;1.40;99.90;;;0.54;100.00;96794.41;6004669;23;20017;-59
2023/03/12 05:07:02;;;;;;;8.00;3.13;;;1.40;99.90;;;0.58;100.00;96797.84;5996454;23;20780;-59
2023/03/12 05:09:28;;;;;;;5.28;3.15;;;1.50;99.90;;;0.61;100.00;96794.34;6003221;23;20083;-57
2023/03/12 05:11:53;;;;;;;5.57;2.97;;;1.50;99.90;;;0.65;100.00;96798.66;5994160;23;20018;-57
2023/03/12 05:14:19;;;;;;;8.23;2.80;;;1.50;99.90;;;0.65;100.00;96790.88;6003128;23;20079;-56
2023/03/12 05:16:45;;;;;;;8.55;3.00;;;1.60;99.90;;;0.65;100.00;96789.16;6000068;23;20020;-57
2023/03/12 05:19:11;;;;;;;6.70;3.05;;;1.60;99.90;;;0.68;100.00;96788.25;6005164;23;20462;-57
2023/03/12 05:21:40;;;;;;;7.60;2.72;;;1.60;99.90;;;0.71;100.00;96783.88;6000094;23;20044;-57
2023/03/12 05:24:06;;;;;;;6.30;2.83;;;1.60;99.90;;;0.73;100.00;96782.13;6005324;23;20032;-57
2023/03/12 05:26:32;;;;;;;5.25;3.28;;;1.60;99.90;;;0.75;100.00;96790.81;6004595;23;20523;-57
2023/03/12 05:29:00;;;;;;;4.93;2.92;;;1.70;99.90;;;0.80;100.00;96789.91;5975163;23;20018;-57
2023/03/12 05:31:27;;;;;;;5.40;3.03;;;1.70;99.90;;;0.80;100.00;96788.16;6001633;23;20083;-57
2023/03/12 05:33:53;;;;;;;5.38;2.97;;;1.70;99.90;;;0.76;100.00;96774.34;5995851;23;20016;-58
2023/03/12 05:36:19;;;;;;;4.70;2.67;;;1.70;99.90;;;0.85;100.00;96791.56;6001896;23;20056;-58
2023/03/12 05:38:45;;;;;;;5.68;2.75;;;1.70;99.90;;;0.86;100.00;96788.13;6002069;23;20029;-58
2023/03/12 05:41:24;;;;;;;5.65;3.10;;;1.80;99.90;;;0.92;100.00;96792.41;6001431;23;20438;-60
2023/03/12 05:43:52;;;;;;;5.47;3.30;;;1.80;99.90;;;0.92;100.00;96790.66;5996892;23;20437;-58
2023/03/12 05:46:18;;;;;;;5.40;3.03;;;1.80;99.90;;;0.90;100.00;96786.34;6005822;23;20009;-57
2023/03/12 05:48:43;;;;;;;6.57;2.60;;;1.80;99.90;;;1.00;100.00;96802.69;6001312;23;20029;-57
2023/03/12 05:51:09;;;;;;;5.60;3.45;;;1.90;99.90;;;1.04;100.00;96813.06;6003098;23;20021;-58
2023/03/12 05:53:35;;;;;;;4.55;3.00;;;1.90;99.90;;;1.07;100.00;96807.81;5995592;23;20083;-58
2023/03/12 05:56:11;;;;;;;6.18;2.95;;;2.00;99.90;;;1.11;100.00;96806.06;5999874;23;20079;-57
2023/03/12 05:58:37;;;;;;;5.03;3.15;;;2.00;99.90;;;1.13;100.00;96812.09;5992113;23;20024;-58
2023/03/12 06:01:11;;;;;;;5.82;2.70;;;2.00;99.90;;;1.09;100.00;96807.81;6002167;23;20020;-58
2023/03/12 06:03:37;;;;;;;5.13;2.90;;;2.00;99.90;;;1.18;100.00;96817.25;5975900;23;20009;-57
2023/03/12 06:06:03;;;;;;;5.35;3.10;;;2.10;99.90;;;1.19;100.00;96816.41;6001506;23;20021;-57
2023/03/12 06:08:29;;;;;;;5.03;3.03;;;2.10;99.90;;;1.23;100.00;96818.94;6002781;23;20108;-58
2023/03/12 06:10:55;;;;;;;6.43;3.05;;;2.10;99.90;;;1.25;100.00;96811.97;5996040;23;20484;-58
2023/03/12 06:13:22;;;;;;;5.82;2.70;;;2.10;99.90;;;1.28;100.00;96809.38;5995976;23;20067;-57
2023/03/12 06:15:48;;;;;;;6.03;3.25;;;2.10;99.90;;;1.27;100.00;96802.44;5997953;23;20349;-57
2023/03/12 06:18:14;;;;;;;7.40;3.35;;;2.20;99.90;;;1.27;100.00;96801.59;5997753;23;20425;-57
2023/03/12 06:20:40;;;;;;;7.00;3.65;;;2.10;99.90;;;1.25;100.00;96806.78;5997970;23;20092;-58
2023/03/12 06:23:06;;;;;;;10.48;3.45;;;2.10;99.90;;;1.22;100.00;96806.84;5994218;23;20092;-57
2023/03/12 06:25:32;;;;;;;7.18;3.78;;;2.10;99.90;;;1.23;100.00;96799.91;6001077;23;20763;-57
2023/03/12 06:27:58;;;;;;;7.20;3.65;;;2.10;99.90;;;1.22;100.00;96791.25;5997082;23;20052;-58
2023/03/12 06:30:25;;;;;;;6.40;3.58;;;2.10;99.90;;;1.19;100.00;96783.47;5996832;23;20024;-58
2023/03/12 06:32:51;;;;;;;6.55;3.28;;;2.10;99.90;;;1.17;100.00;96782.63;5992893;23;20040;-58
2023/03/12 06:35:17;;;;;;;6.82;3.40;;;2.10;99.90;;;1.24;100.00;96788.63;5974756;23;20040;-57
2023/03/12 06:37:43;;;;;;;6.43;3.50;;;2.10;99.90;;;1.23;100.00;96786.91;5993127;23;20029;-58
2023/03/12 06:40:11;;;;;;;6.75;3.20;;;2.10;99.90;;;1.26;100.00;96789.50;5992629;23;20388;-58
2023/03/12 06:42:38;;;;;;;7.43;3.47;;;2.10;99.90;;;1.28;100.00;96778.19;5988708;23;20028;-58
2023/03/12 06:45:05;;;;;;;7.70;3.28;;;2.20;99.90;;;1.39;100.00;96779.81;5994264;23;20056;-58
2023/03/12 06:47:31;;;;;;;8.15;3.20;;;2.20;99.90;;;1.47;100.00;96778.00;5998135;23;20039;-58
2023/03/12 06:49:56;;;;;;;6.43;2.90;;;2.30;99.90;;;1.57;100.00;96783.97;5998372;23;20754;-58
2023/03/12 06:52:22;;;;;;;6.80;3.10;;;2.40;99.90;;;1.64;100.00;96785.63;5993413;23;20457;-58
2023/03/12 06:54:48;;;;;;;7.82;3.38;;;2.50;99.90;;;1.74;100.00;96774.19;5994770;23;20021;-58
2023/03/12 06:57:15;;;;;;;8.10;3.80;;;2.60;99.90;;;1.89;100.00;96775.78;5996880;23;20032;-58
2023/03/12 06:59:41;;;;;;;7.57;3.53;;;2.70;99.90;;;2.06;100.00;96779.03;5988782;23;20048;-58
2023/03/12 07:02:10;;;;;;;6.60;3.58;;;2.90;99.90;;;2.20;100.00;96790.97;5993916;23;20078;-58
2023/03/12 07:04:36;;;;;;;6.10;3.55;;;3.00;99.90;;;2.26;100.00;96775.28;5987386;23;20982;-60
2023/03/12 07:07:02;;;;;;;8.55;3.95;;;3.10;99.90;;;2.28;100.00;96789.16;5990691;23;20033;-60
2023/03/12 07:09:27;;;;;;;4.90;3.50;;;3.10;99.90;;;2.28;100.00;96789.16;6003080;23;20358;-60
2023/03/12 07:11:53;;;;;;;7.18;3.90;;;3.10;99.90;;;2.29;100.00;96786.50;5995439;23;20056;-59
2023/03/12 07:14:20;;;;;;;7.38;4.28;;;3.20;99.90;;;2.28;100.00;96787.41;5998362;23;20032;-60
2023/03/12 07:16:46;;;;;;;5.30;3.45;;;3.10;99.90;;;2.32;100.00;96784.75;5998301;23;20024;-60
2023/03/12 07:19:12;;;;;;;7.15;3.30;;;3.20;99.90;;;2.36;100.00;96781.22;6002875;23;20017;-59
2023/03/12 07:21:38;;;;;;;6.35;4.10;;;3.20;99.90;;;2.38;100.00;96790.72;6004127;23;20037;-59
2023/03/12 07:24:06;;;;;;;8.13;3.42;;;3.20;99.90;;;2.40;100.00;96793.28;5999516;23;20013;-60
2023/03/12 07:26:34;;;;;;;6.15;3.70;;;3.20;99.90;;;2.43;100.00;96801.06;6006289;23;20048;-60
2023/03/12 07:29:00;;;;;;;5.15;3.20;;;3.20;99.90;;;2.40;100.00;96793.28;5999908;23;20091;-60
2023/03/12 07:31:26;;;;;;;5.55;3.53;;;3.20;99.90;;;2.44;100.00;96794.97;6005816;23;20040;-58
2023/03/12 07:33:52;;;;;;;6.30;3.78;;;3.20;99.90;;;2.41;100.00;96798.47;6002174;23;20378;-58
2023/03/12 07:36:17;;;;;;;6.53;3.83;;;3.30;99.90;;;2.42;100.00;96800.22;5999962;23;20040;-60
2023/03/12 07:38:43;;;;;;;7.35;4.25;;;3.30;99.90;;;2.39;100.00;96787.25;5999765;23;20047;-61
2023/03/12 07:41:09;;;;;;;8.48;3.83;;;3.30;99.90;;;2.50;100.00;96794.03;5999147;23;20013;-58
2023/03/12 07:43:34;;;;;;;8.13;4.20;;;3.40;99.90;;;2.58;100.00;96789.56;6001402;23;20036;-57
2023/03/12 07:46:00;;;;;;;6.00;3.53;;;3.40;99.90;;;2.63;100.00;96777.34;5180348;22;20057;-41
2023/03/12 07:48:26;;;;;;;8.05;4.50;;;3.50;99.90;;;2.79;100.00;96786.63;5005149;28;20044;-41
2023/03/12 07:50:52;;;;;;;6.38;3.65;;;3.70;99.90;;;2.95;100.00;96792.44;5001559;28;20040;-41
2023/03/12 07:53:17;;;;;;;8.50;3.97;;;3.80;99.90;;;3.02;100.00;96786.25;4996876;28;20493;-42
2023/03/12 07:55:45;;;;;;;6.97;3.92;;;3.90;99.90;;;3.13;100.00;96791.28;4996900;28;20247;-41
2023/03/12 07:58:12;;;;;;;8.40;4.18;;;4.00;99.90;;;3.25;100.00;96785.84;4997936;28;20473;-42
2023/03/12 08:00:38;;;;;;;7.45;4.22;;;4.10;99.90;;;3.48;100.00;96786.31;5005800;28;20087;-41
2023/03/12 08:03:04;;;;;;;8.13;4.95;;;4.30;99.90;;;3.61;100.00;96793.88;5003187;28;20496;-42
2023/03/12 08:05:30;;;;;;;8.30;4.20;;;4.40;99.90;;;3.53;100.00;96797.53;4982561;28;20095;-42
2023/03/12 08:07:56;;;;;;;9.50;4.57;;;4.40;99.90;;;3.49;100.00;96798.47;5000290;28;20026;-42
2023/03/12 08:10:22;;;;;;;8.15;4.03;;;4.40;99.90;;;3.25;100.00;96772.81;5004435;28;20378;-41
2023/03/12 08:12:48;;;;;;;8.80;4.55;;;4.30;99.90;;;3.37;100.00;96799.53;4996450;28;20021;-41
2023/03/12 08:15:14;;;;;;;9.45;4.35;;;4.20;99.90;;;3.39;100.00;96795.16;4998784;28;20525;-42
2023/03/12 08:17:40;;;;;;;8.18;4.28;;;4.20;99.90;;;3.43;100.00;96789.03;4998879;28;20051;-41
2023/03/12 08:20:09;;;;;;;9.57;5.03;;;4.30;99.90;;;3.52;100.00;96801.03;5009549;28;20500;-41
2023/03/12 08:22:36;;;;;;;7.38;4.32;;;4.30;99.90;;;3.41;100.00;96799.47;5006477;28;20064;-41
2023/03/12 08:25:03;;;;;;;7.60;4.82;;;4.30;99.90;;;3.44;100.00;96801.16;5011355;28;20033;-41
2023/03/12 08:27:29;;;;;;;9.55;4.95;;;4.30;99.90;;;3.42;100.00;96801.19;4989689;28;20037;-41
2023/03/12 08:29:55;;;;;;;9.13;4.47;;;4.30;99.90;;;3.46;100.00;96809.81;5006708;28;20029;-43
2023/03/12 08:32:21;;;;;;;7.68;4.00;;;4.30;99.90;;;3.46;100.00;96807.19;5005139;28;20088;-41
2023/03/12 08:34:46;;;;;;;8.82;4.00;;;4.30;99.90;;;3.31;100.00;96779.66;5011455;28;20041;-42
2023/03/12 08:37:12;;;;;;;9.07;4.25;;;4.30;99.90;;;3.50;100.00;96814.09;5007719;28;20377;-41
2023/03/12 08:39:38;;;;;;;8.00;3.75;;;4.30;99.90;;;3.46;100.00;96788.09;5009707;28;20087;-41
2023/03/12 08:42:04;;;;;;;7.68;4.20;;;4.40;99.90;;;3.77;100.00;96823.16;5011340;28;20064;-42
2023/03/12 08:44:30;;;;;;;8.05;4.10;;;4.50;99.90;;;3.92;100.00;96818.53;5009640;28;20092;-42
2023/03/12 08:46:56;;;;;;;6.22;4.00;;;4.70;99.90;;;4.15;100.00;96810.22;5008033;28;20033;-42
2023/03/12 08:49:22;;;;;;;5.85;3.83;;;4.90;99.90;;;4.40;100.00;96818.41;5010972;28;20836;-43
2023/03/12 08:51:50;;;;;;;8.15;3.88;;;5.20;99.90;;;4.66;100.00;96814.31;5007632;28;20022;-41
2023/03/12 08:54:17;;;;;;;7.65;3.95;;;5.40;99.90;;;4.83;100.00;96813.94;5008185;28;20619;-41
2023/03/12 08:56:45;;;;;;;5.50;3.70;;;5.60;99.90;;;4.96;100.00;96821.44;5006124;28;20030;-41
2023/03/12 08:59:12;;;;;;;5.68;3.60;;;5.70;99.90;;;5.08;100.00;96814.19;5008257;28;20095;-41
2023/03/12 09:01:38;;;;;;;5.05;3.58;;;5.80;99.90;;;5.25;100.00;96809.41;4989824;28;20065;-41
2023/03/12 09:04:04;;;;;;;8.27;3.60;;;6.00;99.90;;;5.36;100.00;96798.69;5005804;28;21139;-42
2023/03/12 09:06:32;;;;;;;6.45;3.85;;;6.10;99.90;;;5.44;100.00;96807.19;5010601;28;20032;-41
2023/03/12 09:09:03;;;;;;;8.07;4.10;;;6.20;99.90;;;5.50;100.00;96798.34;5009201;28;20424;-42
2023/03/12 09:11:33;;;;;;;5.82;3.97;;;6.30;99.90;;;5.52;100.00;96779.06;5010929;28;20025;-41
2023/03/12 09:14:00;;;;;;;6.78;4.18;;;6.40;99.90;;;5.86;100.00;96806.94;5008253;28;20067;-42
2023/03/12 09:16:25;;;;;;;5.72;3.22;;;6.60;99.90;;;6.01;100.00;96808.31;5009651;28;20481;-39
2023/03/12 09:18:52;;;;;;;7.30;4.18;;;6.70;99.90;;;5.97;100.00;96806.66;5008933;28;20064;-39
2023/03/12 09:21:17;;;;;;;6.50;4.03;;;6.80;99.90;;;6.12;100.00;96808.00;5008586;28;20045;-38
2023/03/12 09:23:43;;;;;;;6.18;3.80;;;6.90;99.90;;;6.20;100.00;96797.31;5005334;28;20520;-40
2023/03/12 09:26:11;;;;;;;8.80;4.15;;;7.00;99.90;;;6.22;100.00;96809.44;5010799;28;20410;-40
2023/03/12 09:28:37;;;;;;;7.15;4.20;;;7.10;99.90;;;6.40;100.00;96810.66;5009066;28;20041;-40
2023/03/12 09:31:04;;;;;;;7.80;4.78;;;7.20;99.90;;;6.57;100.00;96807.56;5010944;28;20029;-40
2023/03/12 09:33:32;;;;;;;7.22;4.80;;;7.30;99.90;;;6.66;100.00;96816.91;4979726;28;20042;-42
2023/03/12 09:35:59;;;;;;;8.10;4.60;;;7.40;99.90;;;6.74;100.00;96819.28;5009781;28;20067;-42
2023/03/12 09:38:25;;;;;;;8.63;4.95;;;7.50;99.90;;;6.72;100.00;96818.47;5008739;28;20025;-41
2023/03/12 09:40:51;;;;;;;8.75;4.82;;;7.50;99.90;;;6.80;100.00;96819.06;4994766;28;20032;-41
2023/03/12 09:43:46;;;;;;;8.80;4.93;;;7.50;99.90;;;6.96;100.00;96814.19;4998132;28;20481;-41
2023/03/12 09:46:24;;;;;;;9.93;4.70;;;7.70;99.90;;;7.11;100.00;96828.59;4990589;28;20046;-41
2023/03/12 09:48:55;;;;;;;8.63;4.75;;;7.80;99.90;;;7.07;100.00;96830.47;4982902;28;20038;-40
2023/03/12 09:51:33;;;;;;;7.60;4.10;;;7.80;99.90;;;7.06;100.00;96820.88;4987498;28;20064;-37
2023/03/12 09:54:05;;;;;;;8.30;5.07;;;7.70;99.90;;;7.09;100.00;96831.28;4984498;28;20029;-40
2023/03/12 09:56:32;;;;;;;8.68;5.00;;;7.80;99.90;;;7.15;100.00;96819.72;5001454;28;20033;-40
2023/03/12 09:58:58;;;;;;;7.95;4.90;;;8.00;99.90;;;7.36;100.00;96829.50;5010696;28;20030;-41
2023/03/12 10:01:35;;;;;;;6.88;4.70;;;8.10;99.90;;;7.63;100.00;96824.25;5003328;28;20607;-41
2023/03/12 10:04:30;;;;;;;5.95;4.10;;;8.30;99.90;;;7.88;100.00;96826.00;4995680;28;20495;-41
2023/03/12 10:07:17;;;;;;;5.80;4.05;;;8.60;99.90;;;8.17;100.00;96833.69;4993337;28;20076;-41
2023/03/12 10:10:09;;;;;;;2.95;2.53;;;8.90;99.90;;;8.36;100.00;96844.41;4992895;28;20025;-42
2023/03/12 10:13:01;;;;;;;2.92;2.20;;;9.10;99.90;;;8.57;100.00;96836.66;4995790;28;20025;-41
2023/03/12 10:15:46;;;;;;;2.97;2.20;;;9.30;99.90;;;8.68;100.00;96837.09;4998949;28;20037;-42
2023/03/12 10:18:44;;;;;;;2.75;2.05;;;9.40;99.90;;;8.97;100.00;96829.84;5010583;28;20292;-41
2023/03/12 10:21:24;;;;;;;4.72;2.03;;;9.80;99.90;;;9.28;100.00;96840.00;5013906;28;20029;-41
2023/03/12 10:24:42;;;;;;;3.00;1.95;;;10.00;99.90;;;9.40;100.00;96837.78;4990279;28;20052;-42
2023/03/12 10:27:15;;;;;;;3.63;1.77;;;10.10;99.90;;;9.38;100.00;96843.09;4992856;28;20055;-42